Weather at Atlantic City International Airport

Public forecast

Using degrees Fahrenheit for public forecast. Weather courtesy of forecast.io.

Current aviation weather report (METAR) for Atlantic City International Airport

Report is more than 6 hours old.

2022/11/14 14:54 (retrieved 2 years ago)

KACY 141454Z 33017G27KT 10SM CLR 06/M07 A3035 RMK AO2 PK WND 32027/1449 SLP278 T00611067 50014

Aviation forecast (TAF) for Atlantic City International Airport

Forecast is more than 12 hours old.

2023/02/22 18:37 (retrieved 1 year ago)

TAF KACY 221730Z 2218/2318 13005KT P6SM BKN060 TEMPO 2218/2221 6SM -RA FM230000 10008KT 5SM BR OVC025 FM230400 10008KT 4SM BR OVC007 FM230600 22008KT 5SM BR BKN003 WS020/24045KT FM231300 29015G25KT P6SM BKN030